Aviation Digital Data Service (ADDS)

Output produced by METARs form (0055 UTC 19 August 2019)
found at http://www.aviationweather.gov/metar/data/
 
Forecast for: DBBB (COTONOU/CADJEHOU, BJ)
Text: TAF DBBB 182300Z 1900/2006 24012KT 8000 SCT013
Forecast period: 0000 UTC 19 August 2019 to 0600 UTC 20 August 2019
Forecast type: FROM: standard forecast or significant change
Winds: from the WSW (240 degrees) at 14 MPH (12 knots; 6.2 m/s)
Visibility: 5 miles (8 km)
Ceiling: at least 12,000 feet AGL
Clouds: scattered clouds at 1300 feet AGL
Weather: no significant weather forecast for this period